Time;durP1;ratioP1;P1;durP2;ratioP2;P2;SDS_P1;SDS_P2;PMS_P1;PMS_P2;Temp;Humidity;BMP_temperature;BMP_pressure;BME280_temperature;BME280_humidity;BME280_pressure;Samples;Min_cycle;Max_cycle;Signal;HPM_P1;HPM_P2
2021/04/28 00:00:44;;;;;;;8.07;4.25;;;;;;;;;;5089856;28;20446;-63
2021/04/28 00:03:10;;;;;;;9.63;3.65;;;;;;;;;;5089751;28;20164;-64
2021/04/28 00:05:36;;;;;;;12.30;3.72;;;;;;;;;;5085079;28;20020;-64
2021/04/28 00:08:02;;;;;;;14.95;4.07;;;;;;;;;;5087923;28;20019;-64
2021/04/28 00:10:28;;;;;;;11.27;3.70;;;;;;;;;;5088819;28;20119;-63
2021/04/28 00:12:54;;;;;;;11.13;3.80;;;;;;;;;;5089404;28;20031;-65
2021/04/28 00:15:20;;;;;;;9.73;4.00;;;;;;;;;;5089792;28;20430;-65
2021/04/28 00:17:46;;;;;;;11.07;3.92;;;;;;;;;;5089939;28;20020;-64
2021/04/28 00:20:12;;;;;;;11.27;4.38;;;;;;;;;;5088787;28;20112;-65
2021/04/28 00:22:37;;;;;;;14.60;4.25;;;;;;;;;;5090354;28;20028;-64
2021/04/28 00:25:10;;;;;;;11.10;4.68;;;;;;;;;;5089578;28;20016;-63
2021/04/28 00:27:36;;;;;;;8.52;4.05;;;;;;;;;;5089659;28;20069;-64
2021/04/28 00:30:02;;;;;;;9.20;4.20;;;;;;;;;;5089835;28;20024;-63
2021/04/28 00:32:27;;;;;;;13.77;4.28;;;;;;;;;;5089434;28;20480;-64
2021/04/28 00:34:52;;;;;;;9.40;4.25;;;;;;;;;;5082042;28;20027;-64
2021/04/28 00:37:17;;;;;;;8.07;4.03;;;;;;;;;;5090401;28;20028;-64
2021/04/28 00:39:42;;;;;;;14.07;6.77;;;;;;;;;;5087068;28;20357;-64
2021/04/28 00:42:08;;;;;;;10.50;4.67;;;;;;;;;;5089505;28;20292;-64
2021/04/28 00:44:33;;;;;;;11.30;4.35;;;;;;;;;;5089711;28;20290;-65
2021/04/28 00:46:58;;;;;;;7.00;3.95;;;;;;;;;;5089280;28;20013;-64
2021/04/28 00:49:23;;;;;;;8.15;5.10;;;;;;;;;;5089324;28;20066;-64
2021/04/28 00:51:49;;;;;;;13.82;4.28;;;;;;;;;;5089081;28;20153;-64
2021/04/28 00:54:15;;;;;;;10.25;4.70;;;;;;;;;;5089306;28;20031;-64
2021/04/28 00:56:41;;;;;;;8.70;4.82;;;;;;;;;;5089119;28;20024;-64
2021/04/28 00:59:06;;;;;;;8.45;4.93;;;;;;;;;;5089202;28;20047;-64
2021/04/28 01:01:31;;;;;;;8.30;4.70;;;;;;;;;;5084045;28;20009;-64
2021/04/28 01:03:57;;;;;;;11.48;5.00;;;;;;;;;;5078113;28;20020;-64
2021/04/28 01:06:22;;;;;;;11.18;4.57;;;;;;;;;;5089262;28;20035;-64
2021/04/28 01:08:47;;;;;;;12.95;5.38;;;;;;;;;;5088856;28;20553;-64
2021/04/28 01:11:13;;;;;;;7.45;4.15;;;;;;;;;;5088919;28;20024;-64
2021/04/28 01:13:38;;;;;;;12.02;4.75;;;;;;;;;;5089891;28;20476;-65
2021/04/28 01:16:03;;;;;;;15.15;5.60;;;;;;;;;;5089378;28;20404;-64
2021/04/28 01:18:29;;;;;;;14.60;4.20;;;;;;;;;;5089915;28;20024;-64
2021/04/28 01:20:54;;;;;;;7.03;4.13;;;;;;;;;;5091315;28;20077;-64
2021/04/28 01:23:21;;;;;;;10.27;4.72;;;;;;;;;;5076905;28;20066;-64
2021/04/28 01:25:46;;;;;;;12.75;4.82;;;;;;;;;;5093120;28;20020;-64
2021/04/28 01:28:17;;;;;;;9.45;3.80;;;;;;;;;;5092420;28;20016;-64
2021/04/28 01:30:46;;;;;;;8.18;4.32;;;;;;;;;;5091885;28;20023;-64
2021/04/28 01:33:12;;;;;;;7.40;4.47;;;;;;;;;;5090805;28;20312;-65
2021/04/28 01:35:38;;;;;;;8.43;4.45;;;;;;;;;;5093028;28;20020;-63
2021/04/28 01:38:04;;;;;;;11.75;4.38;;;;;;;;;;5092113;28;20031;-64
2021/04/28 01:40:29;;;;;;;7.82;4.40;;;;;;;;;;5092470;28;20020;-65
2021/04/28 01:42:55;;;;;;;10.75;4.97;;;;;;;;;;5091999;28;20452;-64
2021/04/28 01:45:20;;;;;;;15.63;4.38;;;;;;;;;;5091915;28;20024;-65
2021/04/28 01:47:45;;;;;;;11.05;5.65;;;;;;;;;;5091636;28;20015;-63
2021/04/28 01:50:12;;;;;;;7.97;4.35;;;;;;;;;;5092624;28;20423;-65
2021/04/28 01:52:37;;;;;;;8.52;4.57;;;;;;;;;;5092303;28;20016;-64
2021/04/28 01:55:04;;;;;;;12.23;4.25;;;;;;;;;;5091905;28;20440;-64
2021/04/28 01:57:29;;;;;;;8.32;4.95;;;;;;;;;;5092289;28;20020;-64
2021/04/28 01:59:54;;;;;;;8.52;5.13;;;;;;;;;;5083783;28;20039;-64
2021/04/28 02:02:20;;;;;;;8.43;4.43;;;;;;;;;;5091847;28;20024;-64
2021/04/28 02:04:45;;;;;;;19.55;4.80;;;;;;;;;;5092394;28;20026;-64
2021/04/28 02:07:11;;;;;;;8.75;4.40;;;;;;;;;;5092075;28;20034;-62
2021/04/28 02:09:36;;;;;;;11.73;4.35;;;;;;;;;;5091014;28;20026;-65
2021/04/28 02:12:01;;;;;;;11.18;4.57;;;;;;;;;;5089920;28;20375;-65
2021/04/28 02:14:28;;;;;;;9.63;4.13;;;;;;;;;;5084113;28;20078;-64
2021/04/28 02:16:54;;;;;;;12.45;5.00;;;;;;;;;;5086808;28;20028;-63
2021/04/28 02:19:19;;;;;;;10.10;4.55;;;;;;;;;;5077721;28;20035;-64
2021/04/28 02:21:48;;;;;;;8.95;4.50;;;;;;;;;;5084270;28;20028;-63
2021/04/28 02:24:14;;;;;;;8.35;3.92;;;;;;;;;;5088207;28;21624;-64
2021/04/28 02:26:40;;;;;;;13.23;4.43;;;;;;;;;;5083185;28;20435;-64
2021/04/28 02:29:05;;;;;;;18.92;4.60;;;;;;;;;;5089008;28;20015;-63
2021/04/28 02:31:30;;;;;;;11.35;5.07;;;;;;;;;;5091264;28;20026;-63
2021/04/28 02:33:55;;;;;;;9.93;4.47;;;;;;;;;;5091063;28;20192;-64
2021/04/28 02:36:21;;;;;;;8.07;4.28;;;;;;;;;;5091128;28;20032;-64
2021/04/28 02:38:48;;;;;;;12.90;4.40;;;;;;;;;;5091057;28;20016;-64
2021/04/28 02:41:15;;;;;;;9.32;4.72;;;;;;;;;;5090176;28;20022;-64
2021/04/28 02:43:41;;;;;;;13.00;4.40;;;;;;;;;;5091409;28;20030;-64
2021/04/28 02:46:07;;;;;;;10.20;4.53;;;;;;;;;;5085943;28;20142;-64
2021/04/28 02:48:33;;;;;;;14.85;4.45;;;;;;;;;;5089494;28;20024;-65
2021/04/28 02:50:59;;;;;;;17.50;5.05;;;;;;;;;;5090858;28;20015;-63
2021/04/28 02:53:25;;;;;;;10.55;4.15;;;;;;;;;;5091366;28;20361;-64
2021/04/28 02:55:57;;;;;;;7.50;4.53;;;;;;;;;;5083420;28;20103;-64
2021/04/28 02:58:23;;;;;;;10.38;4.65;;;;;;;;;;5081498;28;20016;-63
2021/04/28 03:00:49;;;;;;;11.63;5.07;;;;;;;;;;5089642;28;20104;-63
2021/04/28 03:03:15;;;;;;;9.57;4.93;;;;;;;;;;5076069;28;20107;-64
2021/04/28 03:05:40;;;;;;;10.05;5.00;;;;;;;;;;5071335;28;20016;-64
2021/04/28 03:08:06;;;;;;;10.55;4.45;;;;;;;;;;5086970;28;20545;-63
2021/04/28 03:10:31;;;;;;;11.05;4.63;;;;;;;;;;5085906;28;20022;-63
2021/04/28 03:12:58;;;;;;;7.53;4.07;;;;;;;;;;5090437;28;20381;-62
2021/04/28 03:15:25;;;;;;;8.02;4.90;;;;;;;;;;5090744;28;20046;-64
2021/04/28 03:17:50;;;;;;;17.10;4.93;;;;;;;;;;5082871;28;20551;-65
2021/04/28 03:20:17;;;;;;;15.20;4.93;;;;;;;;;;5082265;28;20027;-63
2021/04/28 03:22:42;;;;;;;8.57;4.55;;;;;;;;;;5087918;28;20035;-63
2021/04/28 03:25:08;;;;;;;8.23;4.55;;;;;;;;;;5088318;28;20073;-64
2021/04/28 03:27:33;;;;;;;14.82;5.50;;;;;;;;;;5084750;28;20376;-64
2021/04/28 03:29:58;;;;;;;16.65;4.88;;;;;;;;;;5087345;28;20039;-63
2021/04/28 03:32:24;;;;;;;35.47;5.00;;;;;;;;;;5089239;28;20278;-64
2021/04/28 03:34:49;;;;;;;10.68;4.70;;;;;;;;;;5085901;28;20054;-63
2021/04/28 03:37:15;;;;;;;16.33;4.80;;;;;;;;;;5088665;28;20115;-64
2021/04/28 03:39:41;;;;;;;9.00;4.53;;;;;;;;;;5086711;28;20027;-65
2021/04/28 03:42:08;;;;;;;10.57;4.88;;;;;;;;;;5075279;28;20026;-65
2021/04/28 03:44:34;;;;;;;11.73;4.85;;;;;;;;;;5085467;28;20016;-63
2021/04/28 03:46:59;;;;;;;8.82;4.72;;;;;;;;;;5087386;28;20019;-64
2021/04/28 03:49:24;;;;;;;8.32;4.40;;;;;;;;;;5079049;28;20042;-64
2021/04/28 03:51:49;;;;;;;11.23;4.93;;;;;;;;;;5072198;28;20020;-65
2021/04/28 03:54:15;;;;;;;9.73;5.32;;;;;;;;;;5087700;28;20035;-64
2021/04/28 03:56:41;;;;;;;14.07;5.60;;;;;;;;;;5085675;28;20028;-63
2021/04/28 03:59:07;;;;;;;12.05;5.70;;;;;;;;;;5071370;28;20063;-64
2021/04/28 04:01:32;;;;;;;14.25;5.97;;;;;;;;;;5086705;28;20048;-64
2021/04/28 04:03:57;;;;;;;17.45;6.20;;;;;;;;;;5076083;28;20344;-64
2021/04/28 04:06:23;;;;;;;16.50;6.40;;;;;;;;;;5079338;28;20032;-64
2021/04/28 04:08:48;;;;;;;10.38;4.97;;;;;;;;;;5085686;28;20034;-65
2021/04/28 04:11:13;;;;;;;13.27;4.93;;;;;;;;;;5084013;28;20032;-65
2021/04/28 04:13:38;;;;;;;11.93;5.27;;;;;;;;;;5088669;28;20019;-65
2021/04/28 04:16:03;;;;;;;12.13;5.85;;;;;;;;;;5089572;28;20277;-65
2021/04/28 04:18:29;;;;;;;9.32;4.57;;;;;;;;;;5089011;28;20048;-65
2021/04/28 04:20:54;;;;;;;12.77;5.70;;;;;;;;;;5088959;28;20028;-65
2021/04/28 04:23:19;;;;;;;12.18;5.93;;;;;;;;;;5083649;28;20028;-61
2021/04/28 04:25:44;;;;;;;19.05;6.50;;;;;;;;;;5083296;28;20063;-64
2021/04/28 04:28:09;;;;;;;14.73;6.00;;;;;;;;;;5086828;28;20382;-64
2021/04/28 04:30:34;;;;;;;10.40;5.35;;;;;;;;;;5087401;28;20269;-63
2021/04/28 04:33:00;;;;;;;11.95;5.30;;;;;;;;;;5077256;28;20020;-64
2021/04/28 04:35:25;;;;;;;12.70;5.70;;;;;;;;;;5084634;28;20074;-64
2021/04/28 04:37:50;;;;;;;12.98;5.65;;;;;;;;;;5085567;28;20027;-64
2021/04/28 04:40:16;;;;;;;12.07;6.18;;;;;;;;;;5080356;28;20024;-63
2021/04/28 04:42:41;;;;;;;12.68;5.63;;;;;;;;;;5087361;28;20019;-65
2021/04/28 04:45:06;;;;;;;12.05;5.93;;;;;;;;;;5086489;28;20541;-64
2021/04/28 04:47:31;;;;;;;15.25;6.25;;;;;;;;;;5080584;28;20035;-64
2021/04/28 04:49:58;;;;;;;16.35;6.47;;;;;;;;;;5086974;28;20031;-65
2021/04/28 04:52:23;;;;;;;10.80;5.72;;;;;;;;;;5080251;28;20365;-63
2021/04/28 04:54:48;;;;;;;14.88;5.32;;;;;;;;;;5086580;28;20027;-63
2021/04/28 04:57:13;;;;;;;13.48;5.93;;;;;;;;;;5090341;28;20356;-64
2021/04/28 04:59:38;;;;;;;12.73;6.70;;;;;;;;;;5081986;28;20155;-62
2021/04/28 05:02:04;;;;;;;13.57;5.85;;;;;;;;;;5091160;28;20289;-64
2021/04/28 05:04:29;;;;;;;13.73;6.38;;;;;;;;;;5091665;28;20105;-63
2021/04/28 05:06:54;;;;;;;15.77;6.15;;;;;;;;;;5090485;28;20024;-65
2021/04/28 05:09:20;;;;;;;12.25;6.30;;;;;;;;;;5089925;28;20107;-64
2021/04/28 05:11:45;;;;;;;10.05;6.45;;;;;;;;;;5083484;28;20493;-62
2021/04/28 05:14:10;;;;;;;9.67;5.50;;;;;;;;;;5081085;28;20141;-64
2021/04/28 05:16:35;;;;;;;15.30;6.63;;;;;;;;;;5086036;28;20261;-63
2021/04/28 05:19:01;;;;;;;16.45;6.88;;;;;;;;;;5087094;28;20290;-65
2021/04/28 05:21:26;;;;;;;12.13;6.65;;;;;;;;;;5079929;28;20031;-65
2021/04/28 05:23:51;;;;;;;10.13;5.97;;;;;;;;;;5086767;28;20089;-63
2021/04/28 05:26:16;;;;;;;14.90;6.55;;;;;;;;;;5072921;28;20056;-64
2021/04/28 05:28:41;;;;;;;11.10;6.43;;;;;;;;;;5088975;28;20027;-64
2021/04/28 05:31:07;;;;;;;13.32;6.63;;;;;;;;;;5089676;28;20026;-64
2021/04/28 05:33:32;;;;;;;15.32;6.25;;;;;;;;;;5081755;28;20024;-64
2021/04/28 05:35:57;;;;;;;16.10;7.18;;;;;;;;;;5082200;28;20073;-65
2021/04/28 05:38:22;;;;;;;10.07;6.68;;;;;;;;;;5087574;28;20031;-64
2021/04/28 05:40:47;;;;;;;16.00;6.28;;;;;;;;;;5090275;28;20069;-64
2021/04/28 05:43:13;;;;;;;17.95;6.28;;;;;;;;;;5087057;28;20477;-65
2021/04/28 05:45:44;;;;;;;18.67;6.80;;;;;;;;;;5084469;28;20020;-65
2021/04/28 05:48:11;;;;;;;17.23;5.88;;;;;;;;;;5092704;28;20023;-65
2021/04/28 05:50:36;;;;;;;12.68;6.10;;;;;;;;;;5090745;28;20020;-64
2021/04/28 05:53:01;;;;;;;23.02;5.85;;;;;;;;;;5091926;28;20498;-65
2021/04/28 05:55:26;;;;;;;18.67;6.20;;;;;;;;;;5091857;28;20023;-64
2021/04/28 05:57:52;;;;;;;21.92;6.10;;;;;;;;;;5090833;28;20016;-65
2021/04/28 06:00:17;;;;;;;19.50;7.10;;;;;;;;;;5091965;28;20020;-65
2021/04/28 06:02:43;;;;;;;20.95;5.80;;;;;;;;;;5084246;28;20342;-62
2021/04/28 06:05:08;;;;;;;11.52;6.35;;;;;;;;;;5080442;28;20023;-63
2021/04/28 06:07:33;;;;;;;10.57;5.47;;;;;;;;;;5087942;28;20404;-64
2021/04/28 06:09:58;;;;;;;11.52;6.43;;;;;;;;;;5091764;28;20102;-64
2021/04/28 06:12:24;;;;;;;16.02;5.82;;;;;;;;;;5091655;28;20066;-64
2021/04/28 06:14:49;;;;;;;13.38;6.03;;;;;;;;;;5091214;28;20430;-63
2021/04/28 06:17:15;;;;;;;10.60;6.20;;;;;;;;;;5090692;28;20032;-65
2021/04/28 06:19:41;;;;;;;16.70;7.00;;;;;;;;;;5091231;28;20039;-65
2021/04/28 06:22:06;;;;;;;11.18;6.15;;;;;;;;;;5090092;28;20457;-65
2021/04/28 06:24:31;;;;;;;14.00;6.20;;;;;;;;;;5087911;28;20073;-65
2021/04/28 06:26:57;;;;;;;12.43;6.07;;;;;;;;;;5088326;28;20012;-64
2021/04/28 06:29:22;;;;;;;12.25;6.03;;;;;;;;;;5091066;28;20024;-65
2021/04/28 06:31:47;;;;;;;15.48;5.38;;;;;;;;;;5089610;28;20376;-65
2021/04/28 06:34:12;;;;;;;15.68;5.90;;;;;;;;;;5091059;28;20023;-65
2021/04/28 06:36:38;;;;;;;12.40;6.72;;;;;;;;;;5091324;28;20024;-64
2021/04/28 06:39:03;;;;;;;10.95;5.72;;;;;;;;;;5085437;28;20515;-64
2021/04/28 06:41:29;;;;;;;12.38;5.43;;;;;;;;;;5088781;28;20023;-65
2021/04/28 06:43:54;;;;;;;11.02;5.28;;;;;;;;;;5090766;28;20427;-65
2021/04/28 06:46:19;;;;;;;11.65;6.35;;;;;;;;;;5091694;28;20027;-64
2021/04/28 06:48:44;;;;;;;11.18;5.82;;;;;;;;;;5091261;28;20035;-64
2021/04/28 06:51:10;;;;;;;4.57;3.23;;;;;;;;;;5091219;28;20056;-63
2021/04/28 06:53:35;;;;;;;10.50;6.78;;;;;;;;;;5091411;28;20742;-64
2021/04/28 06:56:00;;;;;;;12.93;5.50;;;;;;;;;;5092015;28;20024;-66
2021/04/28 06:58:28;;;;;;;11.45;5.18;;;;;;;;;;5090752;28;21036;-63
2021/04/28 07:00:53;;;;;;;13.88;5.82;;;;;;;;;;5089531;28;20488;-64
2021/04/28 07:03:19;;;;;;;16.10;6.35;;;;;;;;;;5088223;28;20020;-66
2021/04/28 07:05:44;;;;;;;14.67;6.17;;;;;;;;;;5090908;28;20487;-61
2021/04/28 07:08:09;;;;;;;12.32;4.93;;;;;;;;;;5089653;28;20273;-65
2021/04/28 07:10:35;;;;;;;19.95;5.65;;;;;;;;;;5081795;28;20028;-61
2021/04/28 07:13:00;;;;;;;9.27;5.70;;;;;;;;;;5106425;22;21169;-67
2021/04/28 07:15:25;;;;;;;12.10;6.13;;;;;;;;;;5057473;28;20087;-67
2021/04/28 07:17:52;;;;;;;9.15;5.28;;;;;;;;;;5060527;28;20115;-68
2021/04/28 07:20:17;;;;;;;11.55;5.82;;;;;;;;;;5067908;28;20024;-67
2021/04/28 07:22:43;;;;;;;11.10;5.22;;;;;;;;;;5068810;28;20031;-67
2021/04/28 07:25:08;;;;;;;10.90;5.80;;;;;;;;;;5062612;28;20465;-67
2021/04/28 07:27:33;;;;;;;12.38;5.47;;;;;;;;;;5041391;28;20264;-68
2021/04/28 07:29:59;;;;;;;14.15;5.88;;;;;;;;;;5063570;28;20630;-68
2021/04/28 07:32:24;;;;;;;11.10;4.90;;;;;;;;;;5061177;28;20062;-68
2021/04/28 07:34:49;;;;;;;14.52;5.18;;;;;;;;;;5069633;28;20643;-68
2021/04/28 07:37:15;;;;;;;12.85;5.55;;;;;;;;;;5069663;28;20028;-68
2021/04/28 07:39:40;;;;;;;13.20;5.53;;;;;;;;;;5063064;28;20036;-68
2021/04/28 07:42:05;;;;;;;15.35;6.22;;;;;;;;;;5066089;28;20275;-68
2021/04/28 07:44:31;;;;;;;12.38;6.30;;;;;;;;;;5061254;28;20087;-68
2021/04/28 07:46:59;;;;;;;15.43;6.00;;;;;;;;;;5043730;28;20016;-68
2021/04/28 07:49:25;;;;;;;8.93;5.68;;;;;;;;;;5063664;28;20025;-69
2021/04/28 07:51:50;;;;;;;13.50;6.50;;;;;;;;;;5064672;28;20020;-68
2021/04/28 07:54:15;;;;;;;8.65;6.00;;;;;;;;;;5067762;28;20079;-68
2021/04/28 07:56:41;;;;;;;12.45;5.88;;;;;;;;;;5069203;28;20107;-69
2021/04/28 07:59:06;;;;;;;15.77;5.68;;;;;;;;;;5059298;28;20025;-68
2021/04/28 08:01:31;;;;;;;18.67;6.10;;;;;;;;;;5064216;28;20070;-68
2021/04/28 08:03:57;;;;;;;10.87;5.70;;;;;;;;;;5069273;28;20020;-68
2021/04/28 08:06:23;;;;;;;9.95;6.07;;;;;;;;;;5069234;28;20331;-69
2021/04/28 08:08:48;;;;;;;12.60;6.10;;;;;;;;;;5058184;28;20528;-69
2021/04/28 08:11:13;;;;;;;11.65;5.50;;;;;;;;;;5069413;28;20028;-69
2021/04/28 08:13:38;;;;;;;11.93;4.93;;;;;;;;;;5068940;28;20033;-68
2021/04/28 08:16:04;;;;;;;8.68;5.43;;;;;;;;;;5064735;28;20021;-68
2021/04/28 08:18:29;;;;;;;9.07;4.80;;;;;;;;;;5068827;28;20025;-68
2021/04/28 08:20:54;;;;;;;8.77;5.10;;;;;;;;;;5069109;28;20027;-68
2021/04/28 08:23:20;;;;;;;15.00;5.60;;;;;;;;;;5069508;28;20243;-67
2021/04/28 08:25:45;;;;;;;12.88;6.03;;;;;;;;;;5068383;28;20094;-67
2021/04/28 08:28:10;;;;;;;11.70;5.67;;;;;;;;;;5068820;28;20127;-67
2021/04/28 08:30:36;;;;;;;14.00;5.67;;;;;;;;;;5070097;28;20766;-67
2021/04/28 08:33:01;;;;;;;14.85;6.53;;;;;;;;;;5071893;28;20051;-67
2021/04/28 08:35:26;;;;;;;10.82;6.28;;;;;;;;;;5073043;28;20033;-68
2021/04/28 08:37:51;;;;;;;11.07;5.78;;;;;;;;;;5050297;28;20017;-67
2021/04/28 08:40:18;;;;;;;12.15;6.60;;;;;;;;;;5072962;28;20024;-67
2021/04/28 08:42:43;;;;;;;13.10;6.72;;;;;;;;;;5072949;28;20070;-67
2021/04/28 08:45:09;;;;;;;8.73;5.53;;;;;;;;;;5071442;28;20025;-68
2021/04/28 08:47:35;;;;;;;13.90;6.28;;;;;;;;;;5054276;28;20020;-69
2021/04/28 08:50:00;;;;;;;8.93;4.90;;;;;;;;;;5071766;28;20036;-67
2021/04/28 08:52:26;;;;;;;15.35;6.05;;;;;;;;;;5064654;28;20024;-68
2021/04/28 08:54:51;;;;;;;12.85;7.05;;;;;;;;;;5066584;28;20021;-68
2021/04/28 08:57:17;;;;;;;15.83;6.70;;;;;;;;;;5059994;28;20036;-67
2021/04/28 08:59:42;;;;;;;13.60;6.45;;;;;;;;;;5067365;28;20283;-69
2021/04/28 09:02:27;;;;;;;17.48;6.18;;;;;;;;;;5070611;28;20495;-68
2021/04/28 09:05:04;;;;;;;14.30;6.30;;;;;;;;;;5068618;28;20067;-68
2021/04/28 09:07:30;;;;;;;22.10;7.47;;;;;;;;;;5071837;28;20108;-69
2021/04/28 09:09:58;;;;;;;17.45;6.47;;;;;;;;;;5072301;28;20151;-69
2021/04/28 09:12:24;;;;;;;11.45;7.15;;;;;;;;;;5071171;28;20050;-68
2021/04/28 09:14:49;;;;;;;13.02;6.50;;;;;;;;;;5064132;28;20115;-68
2021/04/28 09:17:14;;;;;;;14.70;6.27;;;;;;;;;;5073414;28;20488;-68
2021/04/28 09:19:42;;;;;;;12.60;5.90;;;;;;;;;;5072075;28;20282;-70
2021/04/28 09:22:09;;;;;;;12.48;7.07;;;;;;;;;;5072421;28;20274;-68
2021/04/28 09:24:36;;;;;;;18.08;6.63;;;;;;;;;;5072889;28;20075;-70
2021/04/28 09:27:01;;;;;;;18.65;6.22;;;;;;;;;;5052190;28;20510;-68
2021/04/28 09:29:28;;;;;;;12.93;6.50;;;;;;;;;;5066394;28;20029;-68
2021/04/28 09:31:56;;;;;;;13.15;6.50;;;;;;;;;;5071980;28;20025;-68
2021/04/28 09:34:25;;;;;;;16.48;6.50;;;;;;;;;;5069681;28;20016;-68
2021/04/28 09:36:58;;;;;;;13.10;6.50;;;;;;;;;;5058448;28;20021;-69
2021/04/28 09:39:23;;;;;;;12.35;6.07;;;;;;;;;;5062091;28;20385;-68
2021/04/28 09:41:56;;;;;;;10.87;4.67;;;;;;;;;;5071376;28;20024;-69
2021/04/28 09:44:30;;;;;;;13.65;5.57;;;;;;;;;;5063928;28;20320;-69
2021/04/28 09:46:59;;;;;;;13.32;5.80;;;;;;;;;;5067638;28;20024;-68
2021/04/28 09:49:25;;;;;;;8.82;5.32;;;;;;;;;;5067935;28;20105;-68
2021/04/28 09:51:59;;;;;;;10.60;5.35;;;;;;;;;;5071672;28;20028;-68
2021/04/28 09:54:28;;;;;;;16.15;6.47;;;;;;;;;;5072034;28;20074;-68
2021/04/28 09:56:53;;;;;;;11.60;6.00;;;;;;;;;;5071147;28;20485;-68
2021/04/28 09:59:18;;;;;;;11.45;6.05;;;;;;;;;;5071516;28;20066;-68
2021/04/28 10:01:43;;;;;;;11.30;6.80;;;;;;;;;;5071888;28;20093;-68
2021/04/28 10:04:09;;;;;;;12.20;6.43;;;;;;;;;;5067495;28;20617;-68
2021/04/28 10:06:48;;;;;;;16.98;6.80;;;;;;;;;;5064455;28;20274;-70
2021/04/28 10:09:36;;;;;;;17.83;7.68;;;;;;;;;;5070245;28;20481;-68
2021/04/28 10:12:08;;;;;;;16.70;7.75;;;;;;;;;;5071628;28;20046;-69
2021/04/28 10:14:34;;;;;;;12.98;6.72;;;;;;;;;;5069200;28;20455;-68
2021/04/28 10:17:02;;;;;;;10.05;5.80;;;;;;;;;;5066961;28;20504;-69
2021/04/28 10:19:28;;;;;;;13.05;5.72;;;;;;;;;;5059713;28;20493;-69
2021/04/28 10:21:56;;;;;;;13.15;6.32;;;;;;;;;;5065119;28;20067;-68
2021/04/28 10:24:22;;;;;;;6.60;3.30;;;;;;;;;;5064403;28;20024;-68
2021/04/28 10:26:48;;;;;;;18.65;6.10;;;;;;;;;;5070682;28;20024;-68
2021/04/28 10:29:14;;;;;;;17.15;8.60;;;;;;;;;;5071068;28;20069;-69
2021/04/28 10:31:39;;;;;;;10.40;6.70;;;;;;;;;;5070500;28;20218;-68
2021/04/28 10:34:05;;;;;;;11.68;7.13;;;;;;;;;;5069972;28;20485;-70
2021/04/28 10:36:31;;;;;;;13.95;6.25;;;;;;;;;;5071120;28;20013;-69
2021/04/28 10:38:56;;;;;;;9.23;5.47;;;;;;;;;;5056171;28;20027;-68
2021/04/28 10:41:44;;;;;;;14.98;6.60;;;;;;;;;;5057958;28;20020;-69
2021/04/28 10:44:28;;;;;;;9.75;4.57;;;;;;;;;;5067794;28;20024;-68
2021/04/28 10:47:11;;;;;;;9.95;5.85;;;;;;;;;;5064380;28;20017;-68
2021/04/28 10:49:56;;;;;;;14.13;7.53;;;;;;;;;;5061587;28;20024;-68
2021/04/28 10:52:26;;;;;;;10.52;7.10;;;;;;;;;;5064665;28;20025;-68
2021/04/28 10:54:51;;;;;;;15.75;7.22;;;;;;;;;;5061627;28;20120;-68
2021/04/28 10:57:16;;;;;;;12.60;6.60;;;;;;;;;;5065222;28;20095;-68
2021/04/28 10:59:41;;;;;;;11.02;7.00;;;;;;;;;;5060242;28;20104;-68
2021/04/28 11:02:08;;;;;;;9.88;5.78;;;;;;;;;;5067661;28;20039;-69
2021/04/28 11:04:33;;;;;;;12.95;7.57;;;;;;;;;;5060937;28;20676;-68
2021/04/28 11:06:59;;;;;;;10.55;5.68;;;;;;;;;;5042107;28;20024;-68
2021/04/28 11:09:25;;;;;;;10.90;5.45;;;;;;;;;;5059538;28;20029;-68
2021/04/28 11:11:52;;;;;;;14.07;6.78;;;;;;;;;;5067206;28;20050;-68
2021/04/28 11:14:18;;;;;;;11.73;7.30;;;;;;;;;;5063592;28;20130;-68
2021/04/28 11:16:44;;;;;;;14.23;5.88;;;;;;;;;;5062913;28;20671;-68
2021/04/28 11:19:16;;;;;;;10.75;6.90;;;;;;;;;;5062798;28;20028;-68
2021/04/28 11:21:41;;;;;;;14.90;6.88;;;;;;;;;;5058300;28;20032;-69
2021/04/28 11:24:14;;;;;;;13.18;6.15;;;;;;;;;;5064292;28;20017;-69
2021/04/28 11:26:45;;;;;;;15.98;6.30;;;;;;;;;;5058772;28;20066;-68
2021/04/28 11:29:11;;;;;;;16.05;6.45;;;;;;;;;;5065507;28;20059;-70
2021/04/28 11:31:46;;;;;;;10.90;5.28;;;;;;;;;;5065938;28;20660;-68
2021/04/28 11:34:33;;;;;;;9.55;5.00;;;;;;;;;;5058001;28;20032;-68
2021/04/28 11:37:02;;;;;;;8.68;5.22;;;;;;;;;;5058001;28;20024;-68
2021/04/28 11:39:42;;;;;;;15.77;7.07;;;;;;;;;;5065941;28;20029;-68
2021/04/28 11:42:07;;;;;;;10.05;6.15;;;;;;;;;;5061022;28;20033;-69
2021/04/28 11:44:32;;;;;;;13.68;5.80;;;;;;;;;;5048533;28;20025;-68
2021/04/28 11:47:11;;;;;;;11.35;5.95;;;;;;;;;;5063003;28;20091;-68
2021/04/28 11:49:40;;;;;;;9.35;5.18;;;;;;;;;;5062020;28;20036;-69
2021/04/28 11:52:05;;;;;;;10.75;5.90;;;;;;;;;;5059936;28;20468;-68
2021/04/28 11:54:31;;;;;;;9.80;5.25;;;;;;;;;;5064613;28;20131;-68
2021/04/28 11:56:57;;;;;;;11.20;7.07;;;;;;;;;;5062026;28;20024;-69
2021/04/28 11:59:26;;;;;;;12.90;7.10;;;;;;;;;;5065735;28;20059;-68
2021/04/28 12:01:55;;;;;;;14.43;7.85;;;;;;;;;;5056684;28;20267;-70
2021/04/28 12:04:27;;;;;;;16.15;7.55;;;;;;;;;;5060707;28;20483;-68
2021/04/28 12:06:53;;;;;;;7.80;4.32;;;;;;;;;;5058252;28;20013;-69
2021/04/28 12:09:38;;;;;;;8.23;5.07;;;;;;;;;;5067978;28;20385;-68
2021/04/28 12:12:06;;;;;;;6.10;3.80;;;;;;;;;;5062740;28;20029;-68
2021/04/28 12:14:31;;;;;;;14.88;7.25;;;;;;;;;;5057451;28;20048;-68
2021/04/28 12:16:57;;;;;;;11.07;5.25;;;;;;;;;;5065107;28;20072;-68
2021/04/28 12:19:23;;;;;;;11.35;6.32;;;;;;;;;;5066187;28;20501;-69
2021/04/28 12:21:51;;;;;;;14.13;6.93;;;;;;;;;;5062988;28;20017;-70
2021/04/28 12:24:36;;;;;;;9.57;6.07;;;;;;;;;;5061435;28;20117;-69
2021/04/28 12:27:10;;;;;;;12.77;5.63;;;;;;;;;;5056697;28;20024;-68
2021/04/28 12:29:37;;;;;;;7.25;4.95;;;;;;;;;;5059608;28;20460;-69
2021/04/28 12:32:03;;;;;;;11.00;5.65;;;;;;;;;;5063472;28;20142;-68
2021/04/28 12:34:28;;;;;;;12.23;7.05;;;;;;;;;;5058212;28;20107;-68
2021/04/28 12:36:53;;;;;;;13.57;8.32;;;;;;;;;;5059634;28;20103;-69
2021/04/28 12:39:25;;;;;;;16.40;8.25;;;;;;;;;;5059649;28;20174;-68
2021/04/28 12:41:51;;;;;;;17.35;7.57;;;;;;;;;;5059249;28;20017;-69
2021/04/28 12:44:16;;;;;;;13.63;7.40;;;;;;;;;;5058793;28;20043;-69
2021/04/28 12:46:44;;;;;;;9.60;5.93;;;;;;;;;;5060255;28;20044;-68
2021/04/28 12:49:10;;;;;;;15.88;6.38;;;;;;;;;;5059845;28;20262;-68
2021/04/28 12:51:42;;;;;;;7.25;3.53;;;;;;;;;;5056528;28;20543;-68
2021/04/28 12:54:07;;;;;;;17.13;6.75;;;;;;;;;;5061532;28;20077;-70
2021/04/28 12:56:39;;;;;;;10.50;6.43;;;;;;;;;;5068565;28;20099;-69
2021/04/28 12:59:13;;;;;;;6.28;3.72;;;;;;;;;;5062487;28;20813;-70
2021/04/28 13:01:38;;;;;;;15.07;6.25;;;;;;;;;;5058479;28;20322;-68
2021/04/28 13:04:04;;;;;;;7.75;4.28;;;;;;;;;;5056748;28;20043;-69
2021/04/28 13:06:29;;;;;;;10.05;5.88;;;;;;;;;;5058604;28;20024;-68
2021/04/28 13:08:54;;;;;;;7.50;4.40;;;;;;;;;;5062002;28;20029;-68
2021/04/28 13:11:20;;;;;;;12.98;6.55;;;;;;;;;;5062513;28;20266;-68
2021/04/28 13:13:57;;;;;;;10.30;5.43;;;;;;;;;;5067704;22;20039;-65
2021/04/28 13:16:31;;;;;;;11.95;5.70;;;;;;;;;;5043111;28;20039;-67
2021/04/28 13:18:58;;;;;;;17.60;5.68;;;;;;;;;;5049672;28;20020;-67
2021/04/28 13:21:31;;;;;;;12.43;6.45;;;;;;;;;;5054697;28;20024;-67
2021/04/28 13:24:04;;;;;;;12.77;6.80;;;;;;;;;;5049019;28;20020;-68
2021/04/28 13:26:31;;;;;;;9.75;6.05;;;;;;;;;;5053178;28;20028;-65
2021/04/28 13:28:57;;;;;;;12.07;4.38;;;;;;;;;;5054779;28;20104;-65
2021/04/28 13:31:23;;;;;;;11.82;6.82;;;;;;;;;;5052865;28;20075;-67
2021/04/28 13:33:50;;;;;;;15.85;7.75;;;;;;;;;;5061723;28;20032;-68
2021/04/28 13:36:32;;;;;;;12.10;6.13;;;;;;;;;;5067402;28;20036;-66
2021/04/28 13:38:59;;;;;;;10.70;5.90;;;;;;;;;;5056536;28;20021;-68
2021/04/28 13:41:24;;;;;;;11.23;5.93;;;;;;;;;;5052157;28;20017;-66
2021/04/28 13:43:50;;;;;;;15.43;7.55;;;;;;;;;;5048920;28;20013;-66
2021/04/28 13:46:16;;;;;;;9.88;6.95;;;;;;;;;;5050295;28;20533;-67
2021/04/28 13:48:41;;;;;;;6.35;3.97;;;;;;;;;;5055700;28;20020;-66
2021/04/28 13:51:07;;;;;;;12.45;5.20;;;;;;;;;;5054636;28;20024;-66
2021/04/28 13:53:32;;;;;;;13.48;7.72;;;;;;;;;;5051320;28;20469;-67
2021/04/28 13:55:58;;;;;;;17.23;7.40;;;;;;;;;;5051984;28;20028;-68
2021/04/28 13:58:23;;;;;;;16.13;7.05;;;;;;;;;;5051845;28;20025;-67
2021/04/28 14:00:48;;;;;;;15.20;6.90;;;;;;;;;;5054592;28;20028;-67
2021/04/28 14:03:13;;;;;;;13.03;6.57;;;;;;;;;;5050145;28;20268;-67
2021/04/28 14:05:39;;;;;;;10.52;7.03;;;;;;;;;;5032523;28;20260;-66
2021/04/28 14:08:04;;;;;;;15.03;7.17;;;;;;;;;;5061758;28;20024;-67
2021/04/28 14:10:29;;;;;;;14.45;7.43;;;;;;;;;;5065707;28;20329;-67
2021/04/28 14:12:54;;;;;;;13.70;6.57;;;;;;;;;;5060191;28;20016;-67
2021/04/28 14:15:19;;;;;;;12.82;6.82;;;;;;;;;;5060260;28;20303;-66
2021/04/28 14:17:45;;;;;;;11.57;6.90;;;;;;;;;;5052139;28;20075;-67
2021/04/28 14:20:10;;;;;;;13.00;6.80;;;;;;;;;;5056139;28;20033;-66
2021/04/28 14:22:35;;;;;;;12.98;6.55;;;;;;;;;;5053042;28;20342;-66
2021/04/28 14:25:00;;;;;;;14.97;7.23;;;;;;;;;;5049135;28;20428;-67
2021/04/28 14:27:26;;;;;;;11.67;6.57;;;;;;;;;;5054055;28;20283;-66
2021/04/28 14:29:51;;;;;;;17.52;7.65;;;;;;;;;;5055411;28;20355;-66